Time;durP1;ratioP1;P1;durP2;ratioP2;P2;SDS_P1;SDS_P2;PMS_P1;PMS_P2;Temp;Humidity;BMP_temperature;BMP_pressure;BME280_temperature;BME280_humidity;BME280_pressure;Samples;Min_cycle;Max_cycle;Signal;HPM_P1;HPM_P2
2022/03/21 00:00:48;;;;;;;0.80;0.80;;;4.70;1.00;;;;;;5114713;28;20219;-72
2022/03/21 00:03:17;;;;;;;0.80;0.80;;;4.60;1.00;;;;;;5115556;28;20172;-72
2022/03/21 00:05:45;;;;;;;0.70;0.70;;;4.50;1.00;;;;;;5115255;28;20588;-70
2022/03/21 00:08:11;;;;;;;0.70;0.70;;;4.50;1.00;;;;;;5115300;28;20169;-73
2022/03/21 00:10:38;;;;;;;0.70;0.70;;;4.40;1.00;;;;;;5114589;28;20205;-73
2022/03/21 00:13:04;;;;;;;0.63;0.63;;;4.30;1.00;;;;;;5115214;28;20177;-72
2022/03/21 00:15:34;;;;;;;0.80;0.80;;;4.30;1.00;;;;;;5114988;28;20841;-73
2022/03/21 00:18:03;;;;;;;0.70;0.70;;;4.10;1.00;;;;;;5115139;28;20184;-72
2022/03/21 00:20:30;;;;;;;0.77;0.77;;;4.10;1.00;;;;;;5114552;28;20197;-71
2022/03/21 00:22:57;;;;;;;0.60;0.60;;;4.00;1.00;;;;;;5114970;28;20178;-71
2022/03/21 00:25:23;;;;;;;0.60;0.60;;;3.90;1.00;;;;;;5114992;28;20220;-72
2022/03/21 00:27:49;;;;;;;0.70;0.70;;;3.80;1.00;;;;;;5114838;28;20173;-72
2022/03/21 00:30:15;;;;;;;0.70;0.70;;;3.70;1.00;;;;;;5114575;28;20204;-72
2022/03/21 00:32:42;;;;;;;0.70;0.70;;;3.60;1.00;;;;;;5114952;28;20190;-72
2022/03/21 00:35:10;;;;;;;0.80;0.80;;;3.60;1.00;;;;;;5114769;28;20184;-72
2022/03/21 00:37:37;;;;;;;0.80;0.80;;;3.50;1.00;;;;;;5114720;28;20176;-72
2022/03/21 00:40:07;;;;;;;0.70;0.70;;;3.60;1.00;;;;;;5114001;28;20227;-72
2022/03/21 00:42:37;;;;;;;0.70;0.70;;;3.40;1.00;;;;;;5114485;28;20650;-73
2022/03/21 00:45:05;;;;;;;0.70;0.70;;;3.50;65.20;;;;;;5114708;28;20232;-73
2022/03/21 00:47:32;;;;;;;0.80;0.80;;;3.40;79.00;;;;;;5128534;22;20309;-76
2022/03/21 00:49:58;;;;;;;0.80;0.80;;;3.30;1.00;;;;;;5073236;28;20290;-76
2022/03/21 00:52:23;;;;;;;1.00;1.00;;;3.20;1.00;;;;;;5073329;28;20206;-77
2022/03/21 00:54:49;;;;;;;0.90;0.90;;;3.00;1.00;;;;;;5073226;28;20186;-76
2022/03/21 00:57:14;;;;;;;0.80;0.80;;;3.00;1.00;;;;;;5073157;28;20551;-77
2022/03/21 00:59:40;;;;;;;0.80;0.80;;;3.10;1.00;;;;;;5072190;28;20237;-76
2022/03/21 01:02:06;;;;;;;0.80;0.80;;;3.20;1.00;;;;;;5072738;28;20596;-75
2022/03/21 01:04:32;;;;;;;0.80;0.80;;;3.00;1.00;;;;;;5072970;28;20222;-76
2022/03/21 01:06:57;;;;;;;0.90;0.90;;;3.00;1.00;;;;;;5072958;28;20259;-75
2022/03/21 01:09:23;;;;;;;0.90;0.90;;;2.90;1.00;;;;;;5072349;28;20182;-75
2022/03/21 01:11:48;;;;;;;0.80;0.80;;;2.90;1.00;;;;;;5073017;28;20178;-75
2022/03/21 01:14:14;;;;;;;0.80;0.80;;;2.90;1.00;;;;;;5073162;28;20183;-74
2022/03/21 01:16:39;;;;;;;0.80;0.80;;;2.90;1.00;;;;;;5072955;28;20345;-75
2022/03/21 01:19:05;;;;;;;0.80;0.80;;;2.80;1.00;;;;;;5072374;28;20182;-74
2022/03/21 01:21:32;;;;;;;0.80;0.80;;;2.70;1.00;;;;;;5072746;28;20198;-74
2022/03/21 01:23:58;;;;;;;0.80;0.80;;;2.50;1.00;;;;;;5072706;28;20206;-75
2022/03/21 01:26:24;;;;;;;0.80;0.80;;;2.20;99.90;;;;;;5072718;28;20285;-76
2022/03/21 01:28:49;;;;;;;0.80;0.80;;;2.30;99.90;;;;;;5072713;28;20500;-76
2022/03/21 01:31:15;;;;;;;0.80;0.80;;;2.40;99.90;;;;;;5072348;28;20692;-75
2022/03/21 01:33:41;;;;;;;0.80;0.80;;;2.40;99.90;;;;;;5072467;28;20182;-76
2022/03/21 01:36:07;;;;;;;0.80;0.80;;;2.10;1.00;;;;;;5072437;28;20178;-75
2022/03/21 01:38:34;;;;;;;0.80;0.80;;;2.00;1.00;;;;;;5072509;28;20179;-74
2022/03/21 01:40:59;;;;;;;0.80;0.80;;;2.20;99.90;;;;;;5071764;28;20202;-76
2022/03/21 01:43:25;;;;;;;0.80;0.80;;;2.10;99.90;;;;;;5072321;28;20174;-74
2022/03/21 01:45:51;;;;;;;0.90;0.90;;;2.20;1.00;;;;;;5072406;28;20214;-75
2022/03/21 01:48:16;;;;;;;0.80;0.80;;;2.20;1.00;;;;;;5072266;28;20197;-75
2022/03/21 01:50:42;;;;;;;0.87;0.87;;;2.00;99.90;;;;;;5071671;28;20687;-73
2022/03/21 01:55:56;;;;;;;0.83;0.83;;;2.00;1.00;;;;;;5071988;28;20193;-75
2022/03/21 01:58:22;;;;;;;0.80;0.80;;;2.10;1.00;;;;;;5072141;28;20176;-75
2022/03/21 02:00:48;;;;;;;0.97;0.97;;;2.10;1.00;;;;;;5071294;28;20198;-75
2022/03/21 02:03:14;;;;;;;0.80;0.80;;;2.00;1.00;;;;;;5071844;28;20683;-76
2022/03/21 02:05:39;;;;;;;0.80;0.80;;;2.10;1.00;;;;;;5071689;28;20209;-76
2022/03/21 02:08:06;;;;;;;0.80;0.80;;;2.00;1.00;;;;;;5071554;28;20186;-75
2022/03/21 02:10:31;;;;;;;0.80;0.80;;;2.10;1.00;;;;;;5071314;28;20336;-74
2022/03/21 02:12:58;;;;;;;0.80;0.80;;;1.90;1.00;;;;;;5071675;28;20261;-75
2022/03/21 02:15:25;;;;;;;0.87;0.87;;;1.90;1.00;;;;;;5071639;28;20266;-75
2022/03/21 02:18:00;;;;;;;0.90;0.90;;;1.80;99.90;;;;;;5072861;28;20181;-75
2022/03/21 02:20:27;;;;;;;0.90;0.90;;;1.80;99.90;;;;;;5073210;28;20194;-75
2022/03/21 02:23:08;;;;;;;0.80;0.80;;;1.90;99.90;;;;;;5071786;28;20178;-76
2022/03/21 02:25:36;;;;;;;0.80;0.80;;;1.80;1.00;;;;;;5071539;28;20210;-75
2022/03/21 02:28:07;;;;;;;0.80;0.80;;;1.80;1.00;;;;;;5071388;28;20175;-76
2022/03/21 02:30:37;;;;;;;0.90;0.90;;;1.80;1.00;;;;;;5070921;28;20202;-75
2022/03/21 02:33:02;;;;;;;0.73;0.73;;;1.80;1.00;;;;;;5071107;28;20324;-75
2022/03/21 02:35:29;;;;;;;0.90;0.90;;;1.70;1.00;;;;;;5071496;28;20692;-76
2022/03/21 02:37:56;;;;;;;0.80;0.80;;;1.60;1.00;;;;;;5071481;28;20178;-74
2022/03/21 02:40:23;;;;;;;0.80;0.80;;;1.70;99.90;;;;;;5070691;28;20191;-74
2022/03/21 02:42:49;;;;;;;0.80;0.80;;;1.70;1.00;;;;;;5071060;28;20177;-76
2022/03/21 02:45:15;;;;;;;0.90;0.90;;;1.70;1.00;;;;;;5070992;28;20206;-77
2022/03/21 02:47:41;;;;;;;0.90;0.90;;;1.70;1.00;;;;;;5070931;28;20501;-75
2022/03/21 02:50:11;;;;;;;0.80;0.80;;;1.60;1.00;;;;;;5070662;28;20694;-75
2022/03/21 02:52:41;;;;;;;0.80;0.80;;;1.40;1.00;;;;;;5070917;28;20201;-74
2022/03/21 02:55:07;;;;;;;0.80;0.80;;;1.40;1.00;;;;;;5071102;28;20239;-75
2022/03/21 02:57:33;;;;;;;0.80;0.80;;;1.50;99.90;;;;;;5071096;28;20174;-75
2022/03/21 02:59:59;;;;;;;0.83;0.83;;;1.40;99.90;;;;;;5070434;28;20253;-76
2022/03/21 03:02:25;;;;;;;0.80;0.80;;;1.30;5.80;;;;;;5071149;28;20273;-76
2022/03/21 03:04:50;;;;;;;0.80;0.80;;;1.30;99.90;;;;;;5071054;28;20300;-75
2022/03/21 03:07:16;;;;;;;0.90;0.90;;;1.40;1.00;;;;;;5071023;28;20171;-75
2022/03/21 03:09:41;;;;;;;0.90;0.90;;;1.40;99.90;;;;;;5070486;28;20294;-76
2022/03/21 03:12:08;;;;;;;0.90;0.90;;;1.30;48.00;;;;;;5070796;28;20648;-76
2022/03/21 03:14:34;;;;;;;0.80;0.80;;;1.30;1.00;;;;;;5070924;28;20178;-74
2022/03/21 03:17:01;;;;;;;0.83;0.83;;;1.40;1.00;;;;;;5070993;28;20185;-75
2022/03/21 03:19:27;;;;;;;0.80;0.80;;;1.30;1.00;;;;;;5070386;28;20170;-76
2022/03/21 03:21:54;;;;;;;0.90;0.90;;;1.20;99.90;;;;;;5070863;28;20186;-77
2022/03/21 03:24:22;;;;;;;0.80;0.80;;;1.10;99.90;;;;;;5073012;28;20695;-75
2022/03/21 03:26:48;;;;;;;0.90;0.90;;;1.20;99.90;;;;;;5074777;28;20181;-74
2022/03/21 03:29:14;;;;;;;0.80;0.80;;;1.30;1.00;;;;;;5074104;28;20182;-75
2022/03/21 03:31:39;;;;;;;0.90;0.90;;;1.30;1.00;;;;;;5074862;28;20644;-75
2022/03/21 03:34:05;;;;;;;0.90;0.90;;;1.20;99.90;;;;;;5074690;28;20544;-76
2022/03/21 03:36:31;;;;;;;0.80;0.80;;;1.20;99.90;;;;;;5074570;28;20718;-75
2022/03/21 03:38:57;;;;;;;0.90;0.90;;;1.10;35.80;;;;;;5074140;28;20198;-74
2022/03/21 03:41:23;;;;;;;0.80;0.80;;;1.00;99.90;;;;;;5074279;28;20233;-74
2022/03/21 03:43:49;;;;;;;0.80;0.80;;;1.00;1.00;;;;;;5074336;28;20174;-74
2022/03/21 03:46:16;;;;;;;0.80;0.80;;;1.00;1.00;;;;;;5074370;28;20224;-76
2022/03/21 03:48:45;;;;;;;0.90;0.90;;;1.00;1.00;;;;;;5074213;28;20193;-76
2022/03/21 03:51:12;;;;;;;0.80;0.80;;;0.90;99.90;;;;;;5073799;28;20198;-75
2022/03/21 03:53:38;;;;;;;0.80;0.80;;;0.80;1.00;;;;;;5074268;28;20581;-74
2022/03/21 03:56:06;;;;;;;0.90;0.90;;;0.80;1.00;;;;;;5074170;28;20167;-75
2022/03/21 03:58:32;;;;;;;0.80;0.80;;;0.80;1.00;;;;;;5074019;28;20737;-74
2022/03/21 04:00:58;;;;;;;0.90;0.90;;;0.90;99.90;;;;;;5073805;28;20621;-75
2022/03/21 04:06:07;;;;;;;0.90;0.90;;;0.90;14.00;;;;;;5075550;28;20205;-76
2022/03/21 04:08:33;;;;;;;0.80;0.80;;;0.90;99.90;;;;;;5081240;28;20175;-74
2022/03/21 04:10:58;;;;;;;0.80;0.80;;;0.90;99.90;;;;;;5081200;28;20236;-74
2022/03/21 04:13:24;;;;;;;0.80;0.80;;;0.90;99.90;;;;;;5081260;28;20224;-74
2022/03/21 04:15:49;;;;;;;0.80;0.80;;;0.80;1.00;;;;;;5074175;28;20261;-74
2022/03/21 04:18:15;;;;;;;0.90;0.90;;;0.90;1.00;;;;;;5073775;28;20178;-74
2022/03/21 04:20:41;;;;;;;0.83;0.83;;;0.90;99.90;;;;;;5072961;28;20655;-74
2022/03/21 04:23:09;;;;;;;0.80;0.80;;;0.70;1.00;;;;;;5073470;28;20660;-74
2022/03/21 04:25:35;;;;;;;0.80;0.80;;;0.70;1.00;;;;;;5073259;28;20213;-74
2022/03/21 04:28:08;;;;;;;0.90;0.90;;;0.60;1.00;;;;;;5073956;28;20187;-75
2022/03/21 04:30:33;;;;;;;0.90;0.90;;;0.70;1.00;;;;;;5072968;28;20562;-75
2022/03/21 04:32:59;;;;;;;0.80;0.80;;;0.70;1.00;;;;;;5073445;28;20269;-73
2022/03/21 04:35:26;;;;;;;0.87;0.87;;;0.70;1.00;;;;;;5072161;28;20289;-74
2022/03/21 04:37:52;;;;;;;0.80;0.80;;;0.60;1.00;;;;;;5073438;28;20257;-73
2022/03/21 04:40:17;;;;;;;0.83;0.83;;;0.50;99.90;;;;;;5073019;28;20273;-75
2022/03/21 04:42:43;;;;;;;0.80;0.80;;;0.60;99.90;;;;;;5073491;28;20185;-75
2022/03/21 04:45:09;;;;;;;0.80;0.80;;;0.60;1.00;;;;;;5073380;28;20584;-74
2022/03/21 04:47:34;;;;;;;0.90;0.90;;;0.50;1.00;;;;;;5073168;28;20198;-74
2022/03/21 04:50:00;;;;;;;0.80;0.80;;;0.50;1.00;;;;;;5072726;28;20556;-74
2022/03/21 04:52:26;;;;;;;0.80;0.80;;;0.50;1.00;;;;;;5073030;28;20182;-75
2022/03/21 04:54:51;;;;;;;0.80;0.80;;;0.60;99.90;;;;;;5073364;28;20171;-74
2022/03/21 04:57:23;;;;;;;0.80;0.80;;;0.50;99.90;;;;;;5073044;28;20679;-74
2022/03/21 04:59:49;;;;;;;0.80;0.80;;;0.50;1.00;;;;;;5072589;28;20325;-74
2022/03/21 05:02:15;;;;;;;0.80;0.80;;;0.50;1.00;;;;;;5073085;28;20257;-75
2022/03/21 05:04:41;;;;;;;0.80;0.80;;;0.50;91.90;;;;;;5054866;28;20214;-74
2022/03/21 05:07:06;;;;;;;0.80;0.80;;;0.50;1.00;;;;;;5072881;28;20185;-74
2022/03/21 05:09:32;;;;;;;0.80;0.80;;;0.50;1.00;;;;;;5072514;28;20179;-75
2022/03/21 05:11:58;;;;;;;0.80;0.80;;;0.40;99.90;;;;;;5072927;28;20178;-74
2022/03/21 05:14:23;;;;;;;0.80;0.80;;;0.50;36.60;;;;;;5072704;28;20640;-75
2022/03/21 05:16:49;;;;;;;0.83;0.83;;;0.50;99.90;;;;;;5072833;28;20189;-74
2022/03/21 05:19:15;;;;;;;0.90;0.90;;;0.50;1.00;;;;;;5072026;28;20178;-74
2022/03/21 05:21:41;;;;;;;0.80;0.80;;;0.50;1.00;;;;;;5072515;28;20610;-75
2022/03/21 05:32:25;;;;;;;0.90;0.90;;;0.20;99.90;;;;;;5069261;28;20200;-74
2022/03/21 05:37:35;;;;;;;0.90;0.90;;;0.40;99.90;;;;;;5061009;28;20653;-75
2022/03/21 05:42:44;;;;;;;0.80;0.80;;;0.50;1.00;;;;;;5072473;28;20348;-76
2022/03/21 05:45:11;;;;;;;0.77;0.77;;;0.40;1.00;;;;;;5072268;28;20710;-77
2022/03/21 05:48:50;;;;;;;0.90;0.90;;;0.50;99.90;;;;;;5071628;28;20202;-76
2022/03/21 05:50:22;;;;;;;0.90;0.90;;;0.70;1.00;;;;;;5071108;28;20199;-76
2022/03/21 05:52:47;;;;;;;0.70;0.70;;;0.80;99.90;;;;;;5071935;28;20182;-75
2022/03/21 05:55:13;;;;;;;0.90;0.90;;;0.80;1.00;;;;;;5071776;28;20210;-78
2022/03/21 05:57:38;;;;;;;0.90;0.90;;;0.80;78.50;;;;;;5072138;28;20187;-74
2022/03/21 06:00:20;;;;;;;0.83;0.83;;;0.80;1.00;;;;;;5071403;28;20255;-76
2022/03/21 06:02:46;;;;;;;0.80;0.80;;;1.00;1.00;;;;;;5071331;28;20179;-77
2022/03/21 06:05:11;;;;;;;0.90;0.90;;;0.90;95.60;;;;;;5071738;28;20676;-74
2022/03/21 06:07:37;;;;;;;0.80;0.80;;;1.10;99.90;;;;;;5071663;28;20204;-75
2022/03/21 06:10:03;;;;;;;0.80;0.80;;;1.30;1.00;;;;;;5071357;28;20285;-75
2022/03/21 06:12:30;;;;;;;0.80;0.80;;;1.40;1.00;;;;;;5071796;28;20215;-77
2022/03/21 06:14:56;;;;;;;0.90;0.90;;;1.30;99.90;;;;;;5071786;28;20181;-75
2022/03/21 06:17:22;;;;;;;0.90;0.90;;;1.50;1.00;;;;;;5072785;28;20178;-77
2022/03/21 06:19:47;;;;;;;0.80;0.80;;;1.80;5.00;;;;;;5071138;28;20674;-76
2022/03/21 06:22:13;;;;;;;0.90;0.90;;;2.00;99.90;;;;;;5071422;28;20181;-75
2022/03/21 06:24:39;;;;;;;0.87;0.87;;;2.10;99.90;;;;;;5071265;28;20221;-76
2022/03/21 06:27:04;;;;;;;0.90;0.90;;;1.70;1.00;;;;;;5071888;28;20186;-78
2022/03/21 06:29:30;;;;;;;0.80;0.80;;;2.10;97.30;;;;;;5071686;28;20174;-78
2022/03/21 06:31:56;;;;;;;0.80;0.80;;;2.40;1.00;;;;;;5071449;28;20246;-77
2022/03/21 06:34:21;;;;;;;0.80;0.80;;;2.70;1.00;;;;;;5071666;28;20193;-75
2022/03/21 06:36:47;;;;;;;0.80;0.80;;;3.20;99.90;;;;;;5071005;28;20171;-77
2022/03/21 06:39:12;;;;;;;0.80;0.80;;;3.10;99.90;;;;;;5070869;28;20174;-75
2022/03/21 06:41:38;;;;;;;0.80;0.80;;;3.10;1.00;;;;;;5071172;28;20612;-75
2022/03/21 06:44:06;;;;;;;0.90;0.90;;;2.80;1.00;;;;;;5071068;28;20201;-76
2022/03/21 06:46:31;;;;;;;0.80;0.80;;;2.70;99.90;;;;;;5071050;28;20174;-75
2022/03/21 06:48:57;;;;;;;0.80;0.80;;;3.30;99.90;;;;;;5128178;23;20265;-74
2022/03/21 06:51:22;;;;;;;0.83;0.83;;;3.60;99.90;;;;;;5091830;28;20599;-74
2022/03/21 06:53:48;;;;;;;0.70;0.70;;;3.90;1.00;;;;;;5092081;28;20173;-73
2022/03/21 06:56:13;;;;;;;0.80;0.80;;;4.20;1.00;;;;;;5091974;28;20178;-73
2022/03/21 06:58:39;;;;;;;0.90;0.90;;;4.60;1.00;;;;;;5091357;28;20619;-74
2022/03/21 07:01:04;;;;;;;0.60;0.60;;;5.10;1.00;;;;;;5091382;28;20185;-73
2022/03/21 07:03:32;;;;;;;0.70;0.70;;;5.30;1.00;;;;;;5091839;28;20239;-71
2022/03/21 07:05:58;;;;;;;0.70;0.70;;;5.40;1.00;;;;;;5091581;28;20675;-72
2022/03/21 07:08:24;;;;;;;0.60;0.60;;;5.90;1.00;;;;;;5091548;28;20658;-72
2022/03/21 07:10:49;;;;;;;0.50;0.50;;;5.90;1.00;;;;;;5091227;28;20284;-72
2022/03/21 07:13:15;;;;;;;0.60;0.60;;;6.30;1.00;;;;;;5091824;28;20165;-71
2022/03/21 07:15:41;;;;;;;0.53;0.53;;;6.90;1.00;;;;;;5091552;28;20213;-72
2022/03/21 07:18:08;;;;;;;0.50;0.50;;;7.10;1.00;;;;;;5091657;28;20170;-71
2022/03/21 07:20:34;;;;;;;0.60;0.60;;;7.70;1.00;;;;;;5090551;28;20201;-73
2022/03/21 07:23:00;;;;;;;0.50;0.50;;;7.80;1.00;;;;;;5091695;28;20178;-72
2022/03/21 07:25:26;;;;;;;0.70;0.70;;;7.90;1.00;;;;;;5091513;28;20683;-70
2022/03/21 07:27:54;;;;;;;0.60;0.60;;;8.30;1.00;;;;;;5091589;28;20198;-72
2022/03/21 07:30:20;;;;;;;0.70;0.70;;;8.30;1.00;;;;;;5090908;28;20690;-71
2022/03/21 07:32:46;;;;;;;0.57;0.57;;;8.60;1.00;;;;;;5093250;28;20174;-72
2022/03/21 07:35:13;;;;;;;0.50;0.50;;;8.60;1.00;;;;;;5092356;28;20617;-73
2022/03/21 07:37:50;;;;;;;0.50;0.50;;;9.10;1.00;;;;;;5091533;28;20217;-73
2022/03/21 07:40:16;;;;;;;0.50;0.50;;;9.60;1.00;;;;;;5090949;28;20280;-72
2022/03/21 07:42:44;;;;;;;0.50;0.50;;;9.40;1.00;;;;;;5091670;28;20227;-72
2022/03/21 07:47:54;;;;;;;0.60;0.60;;;10.30;1.00;;;;;;5091681;28;20204;-72
2022/03/21 07:50:23;;;;;;;0.40;0.40;;;10.40;1.00;;;;;;5090818;28;20665;-72
2022/03/21 07:52:50;;;;;;;0.40;0.40;;;11.20;1.00;;;;;;5091323;28;20635;-73
2022/03/21 07:55:16;;;;;;;0.40;0.40;;;11.20;1.00;;;;;;5091418;28;20184;-72
2022/03/21 07:57:42;;;;;;;0.40;0.40;;;10.60;1.00;;;;;;5091221;28;20261;-74
2022/03/21 08:00:09;;;;;;;0.50;0.50;;;10.70;1.00;;;;;;5090607;28;20247;-72
2022/03/21 08:02:35;;;;;;;0.50;0.50;;;11.80;1.00;;;;;;5091285;28;20192;-71
2022/03/21 08:05:01;;;;;;;0.40;0.40;;;11.90;1.00;;;;;;5091361;28;20224;-74
2022/03/21 08:07:27;;;;;;;0.40;0.40;;;11.00;1.00;;;;;;5091456;28;20170;-73
2022/03/21 08:09:53;;;;;;;0.40;0.40;;;11.30;1.00;;;;;;5092313;28;20651;-73
2022/03/21 08:12:19;;;;;;;0.30;0.30;;;11.50;1.00;;;;;;5095151;28;20202;-75
2022/03/21 08:14:45;;;;;;;0.37;0.37;;;12.20;1.00;;;;;;5094806;28;20238;-75
2022/03/21 08:17:10;;;;;;;0.40;0.40;;;12.50;1.00;;;;;;5094966;28;20541;-75
2022/03/21 08:19:36;;;;;;;0.30;0.30;;;13.60;1.00;;;;;;5095760;28;20573;-73
2022/03/21 08:22:04;;;;;;;0.40;0.40;;;13.70;1.00;;;;;;5094785;28;20187;-74
2022/03/21 08:24:34;;;;;;;0.30;0.30;;;13.90;1.00;;;;;;5094476;28;20205;-74
2022/03/21 08:26:59;;;;;;;0.33;0.33;;;13.50;1.00;;;;;;5094555;28;20174;-74
2022/03/21 08:29:25;;;;;;;0.40;0.40;;;14.10;1.00;;;;;;5094156;28;20165;-73
2022/03/21 08:31:50;;;;;;;0.30;0.30;;;14.70;1.00;;;;;;5094540;28;20193;-75
2022/03/21 08:34:16;;;;;;;0.30;0.30;;;14.60;1.00;;;;;;5094485;28;20704;-75
2022/03/21 08:36:41;;;;;;;0.30;0.30;;;14.10;1.00;;;;;;5094279;28;20632;-74
2022/03/21 08:39:10;;;;;;;0.33;0.33;;;13.70;1.00;;;;;;5093629;28;20177;-75
2022/03/21 08:41:36;;;;;;;0.30;0.30;;;13.60;1.00;;;;;;5075942;28;20705;-74
2022/03/21 08:44:01;;;;;;;0.40;0.40;;;13.50;1.00;;;;;;5094277;28;20173;-74
2022/03/21 08:46:27;;;;;;;0.30;0.30;;;13.10;1.00;;;;;;5094351;28;20532;-74
2022/03/21 08:51:37;;;;;;;0.30;0.30;;;13.90;1.00;;;;;;5094036;28;20200;-74
2022/03/21 08:54:04;;;;;;;0.30;0.30;;;13.70;1.00;;;;;;5094037;28;20174;-75
2022/03/21 08:56:29;;;;;;;0.30;0.30;;;13.50;1.00;;;;;;5094080;28;20182;-72
2022/03/21 08:58:55;;;;;;;0.30;0.30;;;13.40;1.00;;;;;;5093564;28;20178;-75
2022/03/21 09:01:22;;;;;;;0.30;0.30;;;14.00;1.00;;;;;;5096248;28;20206;-74
2022/03/21 09:03:48;;;;;;;0.30;0.30;;;13.30;1.00;;;;;;5093809;28;20178;-74
2022/03/21 09:06:14;;;;;;;0.33;0.33;;;13.80;1.00;;;;;;5093804;28;20220;-74
2022/03/21 09:08:42;;;;;;;0.30;0.30;;;13.90;1.00;;;;;;5093655;28;20176;-75
2022/03/21 09:11:08;;;;;;;0.30;0.30;;;13.80;1.00;;;;;;5093285;28;20190;-74
2022/03/21 09:13:33;;;;;;;0.30;0.30;;;13.80;1.00;;;;;;5095654;28;20269;-74
2022/03/21 09:15:59;;;;;;;0.30;0.30;;;13.50;1.00;;;;;;5096463;28;20185;-74
2022/03/21 09:18:24;;;;;;;0.30;0.30;;;14.20;1.00;;;;;;5093673;28;20166;-75
2022/03/21 09:20:50;;;;;;;0.40;0.40;;;14.00;1.00;;;;;;5092199;28;20684;-73
2022/03/21 09:23:16;;;;;;;0.37;0.37;;;15.20;1.00;;;;;;5093233;28;20174;-74
2022/03/21 09:25:41;;;;;;;0.30;0.30;;;15.10;1.00;;;;;;5093442;28;20213;-72
2022/03/21 09:28:08;;;;;;;0.30;0.30;;;15.70;1.00;;;;;;5093471;28;20620;-73
2022/03/21 09:30:33;;;;;;;0.30;0.30;;;15.30;1.00;;;;;;5092703;28;20197;-73
2022/03/21 09:32:59;;;;;;;0.40;0.40;;;15.60;1.00;;;;;;5093159;28;20170;-73
2022/03/21 09:35:25;;;;;;;0.30;0.30;;;16.00;1.00;;;;;;5093757;28;20193;-74
2022/03/21 09:37:51;;;;;;;0.30;0.30;;;15.80;1.00;;;;;;5094147;28;20170;-72
2022/03/21 09:40:19;;;;;;;0.30;0.30;;;16.00;1.00;;;;;;5093198;28;20197;-72
2022/03/21 09:42:45;;;;;;;0.30;0.30;;;16.30;1.00;;;;;;5094065;28;20182;-71
2022/03/21 09:45:11;;;;;;;0.30;0.30;;;16.80;1.00;;;;;;5093048;28;20703;-72
2022/03/21 09:50:33;;;;;;;0.30;0.30;;;15.70;1.00;;;;;;5094148;28;20732;-71
2022/03/21 09:53:00;;;;;;;0.30;0.30;;;14.50;1.00;;;;;;5093198;28;20178;-73
2022/03/21 09:55:25;;;;;;;0.20;0.20;;;15.30;1.00;;;;;;5092968;28;20180;-74
2022/03/21 09:57:51;;;;;;;0.20;0.20;;;16.00;1.00;;;;;;5092856;28;20178;-73
2022/03/21 10:00:17;;;;;;;0.30;0.30;;;15.10;1.00;;;;;;5092186;28;20193;-73
2022/03/21 10:02:43;;;;;;;0.27;0.27;;;14.80;1.00;;;;;;5074281;28;20185;-74
2022/03/21 10:05:32;;;;;;;0.23;0.23;;;14.70;1.00;;;;;;5092511;28;20557;-74
2022/03/21 10:08:27;;;;;;;0.30;0.30;;;15.70;1.00;;;;;;5092653;28;20170;-73
2022/03/21 10:10:59;;;;;;;0.40;0.40;;;15.10;1.00;;;;;;5073707;28;20197;-74
2022/03/21 10:13:30;;;;;;;0.30;0.30;;;14.90;1.00;;;;;;5092308;28;20169;-74
2022/03/21 10:16:16;;;;;;;0.30;0.30;;;15.30;1.00;;;;;;5092655;28;20170;-72
2022/03/21 10:18:54;;;;;;;0.40;0.40;;;15.70;1.00;;;;;;5092477;28;20182;-72
2022/03/21 10:21:21;;;;;;;0.30;0.30;;;15.60;1.00;;;;;;5092183;28;20698;-72
2022/03/21 10:24:02;;;;;;;0.30;0.30;;;16.40;1.00;;;;;;5092158;28;20178;-72
2022/03/21 10:26:33;;;;;;;0.30;0.30;;;18.10;1.00;;;;;;5092390;28;20217;-73
2022/03/21 10:29:01;;;;;;;0.30;0.30;;;17.80;1.00;;;;;;5091771;28;20212;-72
2022/03/21 10:31:42;;;;;;;0.30;0.30;;;17.20;1.00;;;;;;5091896;28;20193;-73
2022/03/21 10:34:19;;;;;;;0.33;0.33;;;17.70;1.00;;;;;;5091967;28;20177;-73
2022/03/21 10:37:20;;;;;;;0.30;0.30;;;17.30;1.00;;;;;;5092151;28;20184;-72
2022/03/21 10:39:50;;;;;;;0.30;0.30;;;17.90;1.00;;;;;;4989638;28;20197;-72
2022/03/21 10:42:16;;;;;;;0.30;0.30;;;18.10;1.00;;;;;;5074293;28;20660;-72
2022/03/21 10:44:54;;;;;;;0.40;0.40;;;17.80;1.00;;;;;;5091848;28;20261;-72
2022/03/21 10:47:19;;;;;;;0.30;0.30;;;17.40;1.00;;;;;;5091891;28;20644;-73
2022/03/21 10:49:45;;;;;;;0.40;0.40;;;19.00;1.00;;;;;;5091404;28;20204;-73
2022/03/21 10:52:18;;;;;;;0.40;0.40;;;18.80;1.00;;;;;;5091794;28;20594;-72
2022/03/21 10:54:49;;;;;;;0.40;0.40;;;17.60;1.00;;;;;;5092250;28;20185;-72
2022/03/21 10:57:36;;;;;;;0.30;0.30;;;18.00;1.00;;;;;;5091690;28;20177;-72
2022/03/21 11:00:26;;;;;;;0.30;0.30;;;18.30;1.00;;;;;;5091334;28;20204;-73
2022/03/21 11:02:56;;;;;;;0.30;0.30;;;17.70;1.00;;;;;;5091814;28;20208;-71
2022/03/21 11:05:24;;;;;;;0.30;0.30;;;17.50;1.00;;;;;;5091611;28;20254;-71
2022/03/21 11:07:50;;;;;;;0.30;0.30;;;17.80;1.00;;;;;;5091828;28;20182;-72
2022/03/21 11:10:17;;;;;;;0.30;0.30;;;18.00;1.00;;;;;;5091383;28;20225;-73
2022/03/21 11:12:43;;;;;;;0.30;0.30;;;18.30;1.00;;;;;;5091612;28;20595;-72
2022/03/21 11:15:10;;;;;;;0.30;0.30;;;17.80;1.00;;;;;;5091662;28;20181;-72
2022/03/21 11:17:36;;;;;;;0.20;0.20;;;18.30;1.00;;;;;;5091513;28;20648;-71
2022/03/21 11:20:06;;;;;;;0.30;0.30;;;17.90;1.00;;;;;;5090885;28;20220;-73
2022/03/21 11:22:35;;;;;;;0.40;0.40;;;18.20;1.00;;;;;;5091695;28;20178;-72
2022/03/21 11:25:13;;;;;;;0.30;0.30;;;18.90;1.00;;;;;;5091530;28;20214;-73
2022/03/21 11:28:20;;;;;;;0.30;0.30;;;18.80;1.00;;;;;;5091896;28;20173;-73
2022/03/21 11:31:25;;;;;;;0.30;0.30;;;19.80;1.00;;;;;;5090992;28;20280;-72
2022/03/21 11:34:10;;;;;;;0.30;0.30;;;19.00;1.00;;;;;;5091533;28;20173;-72
2022/03/21 11:36:50;;;;;;;0.33;0.33;;;18.30;1.00;;;;;;5091352;28;20173;-73
2022/03/21 11:39:16;;;;;;;0.30;0.30;;;18.70;1.00;;;;;;5091018;28;20252;-72
2022/03/21 11:42:18;;;;;;;0.30;0.30;;;19.30;1.00;;;;;;5091280;28;20627;-72
2022/03/21 11:45:40;;;;;;;0.40;0.40;;;19.30;1.00;;;;;;5092077;28;20225;-71
2022/03/21 11:48:17;;;;;;;0.20;0.20;;;19.50;1.00;;;;;;5012638;28;20193;-72
2022/03/21 11:50:43;;;;;;;0.30;0.30;;;20.00;1.00;;;;;;5083898;28;20220;-73
2022/03/21 11:53:10;;;;;;;0.37;0.37;;;20.70;1.00;;;;;;5094935;28;20170;-73
2022/03/21 11:55:38;;;;;;;0.43;0.43;;;21.20;1.00;;;;;;5094679;28;20178;-73
2022/03/21 11:58:22;;;;;;;0.30;0.30;;;21.30;1.00;;;;;;5069639;28;20178;-71
2022/03/21 12:01:07;;;;;;;0.30;0.30;;;21.40;1.00;;;;;;5073787;28;20195;-73
2022/03/21 12:03:33;;;;;;;0.40;0.40;;;21.00;1.00;;;;;;5074355;28;20548;-73
2022/03/21 12:06:31;;;;;;;0.30;0.30;;;21.30;1.00;;;;;;5082427;28;20642;-74
2022/03/21 12:08:59;;;;;;;0.38;0.38;;;21.40;1.00;;;;;;5072895;28;20426;-73
2022/03/21 12:11:46;;;;;;;0.40;0.40;;;21.60;1.00;;;;;;5074380;28;20194;-75
2022/03/21 12:14:28;;;;;;;0.40;0.40;;;21.40;1.00;;;;;;5073960;28;20429;-74
2022/03/21 12:17:00;;;;;;;0.40;0.40;;;21.90;1.00;;;;;;5084816;28;20185;-70
2022/03/21 12:19:26;;;;;;;0.40;0.40;;;22.20;1.00;;;;;;5083233;28;20228;-70
2022/03/21 12:22:28;;;;;;;0.30;0.30;;;21.80;1.00;;;;;;5083639;28;20584;-71
2022/03/21 12:24:59;;;;;;;0.40;0.40;;;21.80;1.00;;;;;;5083500;28;20444;-70
2022/03/21 12:27:53;;;;;;;0.40;0.40;;;21.30;1.00;;;;;;5083021;28;20269;-69
2022/03/21 12:30:26;;;;;;;0.20;0.20;;;20.40;1.00;;;;;;5083701;28;20261;-71
2022/03/21 12:33:01;;;;;;;0.27;0.27;;;19.90;1.00;;;;;;5083097;28;20701;-70
2022/03/21 12:35:32;;;;;;;0.30;0.30;;;19.70;1.00;;;;;;5086425;28;20176;-70
2022/03/21 12:38:03;;;;;;;0.30;0.30;;;20.70;1.00;;;;;;5090473;28;20256;-71
2022/03/21 12:40:30;;;;;;;0.30;0.30;;;21.20;1.00;;;;;;5089541;28;20680;-71
2022/03/21 12:42:59;;;;;;;0.30;0.30;;;21.10;1.00;;;;;;5088324;28;20186;-72
2022/03/21 12:45:26;;;;;;;0.40;0.40;;;20.20;1.00;;;;;;5067650;28;20206;-73
2022/03/21 12:47:52;;;;;;;0.30;0.30;;;20.00;1.00;;;;;;5085291;28;20209;-74
2022/03/21 12:50:20;;;;;;;0.40;0.40;;;19.10;1.00;;;;;;5082100;28;20194;-73
2022/03/21 12:52:55;;;;;;;0.30;0.30;;;19.60;1.00;;;;;;5083111;28;20174;-74
2022/03/21 12:55:21;;;;;;;0.30;0.30;;;20.20;1.00;;;;;;5082662;28;20178;-74
2022/03/21 12:58:05;;;;;;;0.30;0.30;;;20.00;1.00;;;;;;5082292;28;20166;-73
2022/03/21 13:00:37;;;;;;;0.40;0.40;;;20.20;1.00;;;;;;5083978;28;20210;-74
2022/03/21 13:03:06;;;;;;;0.30;0.30;;;20.30;1.00;;;;;;5082933;28;20676;-73
2022/03/21 13:11:27;;;;;;;0.37;0.37;;;20.50;1.00;;;;;;5082514;28;20206;-73
2022/03/21 13:13:55;;;;;;;0.30;0.30;;;20.70;1.00;;;;;;5082123;28;20526;-73
2022/03/21 13:16:23;;;;;;;0.30;0.30;;;20.70;1.00;;;;;;5083469;28;20243;-72
2022/03/21 13:18:52;;;;;;;0.30;0.30;;;20.10;1.00;;;;;;5083360;28;20170;-73
2022/03/21 13:21:19;;;;;;;0.30;0.30;;;19.90;1.00;;;;;;5081918;28;20227;-72
2022/03/21 13:23:46;;;;;;;0.40;0.40;;;20.00;1.00;;;;;;5081266;28;20190;-74
2022/03/21 13:26:20;;;;;;;0.40;0.40;;;19.60;1.00;;;;;;5082751;28;20452;-73
2022/03/21 13:28:47;;;;;;;0.40;0.40;;;19.20;1.00;;;;;;5081112;28;20170;-75
2022/03/21 13:31:18;;;;;;;0.30;0.30;;;19.20;1.00;;;;;;5082470;28;20198;-73
2022/03/21 13:33:55;;;;;;;0.20;0.20;;;19.20;1.00;;;;;;5089905;28;20415;-74
2022/03/21 13:36:24;;;;;;;0.30;0.30;;;19.30;1.00;;;;;;5093278;28;20233;-72
2022/03/21 13:39:14;;;;;;;0.43;0.43;;;18.90;1.00;;;;;;5093143;28;20264;-75
2022/03/21 13:42:04;;;;;;;0.40;0.40;;;18.60;1.00;;;;;;5083302;28;20186;-72